sensor_id;sensor_type;location;lat;lon;timestamp;P1;durP1;ratioP1;P2;durP2;ratioP2
80199;SDS011;69520;44.900;-0.764;2023-07-02T00:00:59;4.73;;;1.00;;
80199;SDS011;69520;44.900;-0.764;2023-07-02T00:03:25;5.60;;;1.67;;
80199;SDS011;69520;44.900;-0.764;2023-07-02T00:05:51;5.70;;;1.65;;
80199;SDS011;69520;44.900;-0.764;2023-07-02T00:08:19;5.05;;;1.10;;
80199;SDS011;69520;44.900;-0.764;2023-07-02T00:10:45;3.60;;;0.85;;
80199;SDS011;69520;44.900;-0.764;2023-07-02T00:13:11;4.20;;;0.90;;
80199;SDS011;69520;44.900;-0.764;2023-07-02T12:34:14;12.75;;;5.78;;
80199;SDS011;69520;44.900;-0.764;2023-07-02T12:36:41;12.10;;;6.07;;
80199;SDS011;69520;44.900;-0.764;2023-07-02T12:39:07;11.15;;;5.63;;
80199;SDS011;69520;44.900;-0.764;2023-07-02T12:41:33;12.10;;;5.72;;
80199;SDS011;69520;44.900;-0.764;2023-07-02T12:43:59;12.43;;;5.80;;
80199;SDS011;69520;44.900;-0.764;2023-07-02T12:46:26;11.63;;;5.70;;
80199;SDS011;69520;44.900;-0.764;2023-07-02T12:48:52;12.97;;;6.27;;
80199;SDS011;69520;44.900;-0.764;2023-07-02T12:51:18;12.25;;;5.88;;
80199;SDS011;69520;44.900;-0.764;2023-07-02T12:53:43;13.40;;;6.07;;
80199;SDS011;69520;44.900;-0.764;2023-07-02T12:56:09;10.85;;;5.88;;
80199;SDS011;69520;44.900;-0.764;2023-07-02T12:58:35;12.57;;;5.93;;
80199;SDS011;69520;44.900;-0.764;2023-07-02T13:01:01;12.33;;;6.23;;
80199;SDS011;69520;44.900;-0.764;2023-07-02T13:03:29;12.10;;;6.18;;
80199;SDS011;69520;44.900;-0.764;2023-07-02T13:05:55;12.82;;;6.45;;
80199;SDS011;69520;44.900;-0.764;2023-07-02T13:08:21;11.93;;;6.00;;
80199;SDS011;69520;44.900;-0.764;2023-07-02T13:10:47;12.25;;;6.00;;
80199;SDS011;69520;44.900;-0.764;2023-07-02T13:13:13;13.13;;;6.53;;
80199;SDS011;69520;44.900;-0.764;2023-07-02T13:15:39;12.02;;;6.07;;
80199;SDS011;69520;44.900;-0.764;2023-07-02T13:18:05;13.50;;;7.03;;
80199;SDS011;69520;44.900;-0.764;2023-07-02T13:20:31;14.68;;;6.78;;
80199;SDS011;69520;44.900;-0.764;2023-07-02T13:22:57;13.82;;;6.53;;
80199;SDS011;69520;44.900;-0.764;2023-07-02T13:25:23;13.13;;;6.70;;
80199;SDS011;69520;44.900;-0.764;2023-07-02T13:27:50;13.02;;;6.85;;
80199;SDS011;69520;44.900;-0.764;2023-07-02T13:30:16;12.35;;;6.38;;
80199;SDS011;69520;44.900;-0.764;2023-07-02T13:32:42;13.35;;;7.60;;
80199;SDS011;69520;44.900;-0.764;2023-07-02T13:35:08;13.32;;;7.15;;
80199;SDS011;69520;44.900;-0.764;2023-07-02T13:37:34;13.27;;;6.63;;
80199;SDS011;69520;44.900;-0.764;2023-07-02T13:40:00;12.68;;;6.88;;
80199;SDS011;69520;44.900;-0.764;2023-07-02T13:42:26;14.25;;;6.90;;
80199;SDS011;69520;44.900;-0.764;2023-07-02T13:44:52;14.60;;;7.22;;
80199;SDS011;69520;44.900;-0.764;2023-07-02T13:47:18;14.32;;;6.95;;
80199;SDS011;69520;44.900;-0.764;2023-07-02T13:49:44;15.13;;;7.20;;
80199;SDS011;69520;44.900;-0.764;2023-07-02T13:52:10;15.32;;;7.38;;
80199;SDS011;69520;44.900;-0.764;2023-07-02T13:54:36;15.27;;;7.40;;
80199;SDS011;69520;44.900;-0.764;2023-07-02T13:57:02;13.43;;;7.10;;
80199;SDS011;69520;44.900;-0.764;2023-07-02T13:59:28;13.45;;;6.85;;
80199;SDS011;69520;44.900;-0.764;2023-07-02T14:01:54;14.07;;;7.10;;
80199;SDS011;69520;44.900;-0.764;2023-07-02T14:04:20;12.82;;;6.82;;
80199;SDS011;69520;44.900;-0.764;2023-07-02T14:06:46;12.57;;;6.57;;
80199;SDS011;69520;44.900;-0.764;2023-07-02T14:09:12;15.52;;;7.30;;
80199;SDS011;69520;44.900;-0.764;2023-07-02T14:11:39;14.20;;;6.85;;
80199;SDS011;69520;44.900;-0.764;2023-07-02T14:14:05;13.77;;;6.67;;
80199;SDS011;69520;44.900;-0.764;2023-07-02T14:16:31;13.90;;;7.20;;
80199;SDS011;69520;44.900;-0.764;2023-07-02T14:18:57;15.27;;;6.93;;
80199;SDS011;69520;44.900;-0.764;2023-07-02T14:21:23;13.23;;;6.90;;
80199;SDS011;69520;44.900;-0.764;2023-07-02T14:23:49;13.43;;;7.25;;
80199;SDS011;69520;44.900;-0.764;2023-07-02T14:26:15;13.13;;;7.20;;
80199;SDS011;69520;44.900;-0.764;2023-07-02T14:28:41;15.80;;;6.88;;
80199;SDS011;69520;44.900;-0.764;2023-07-02T14:31:07;15.23;;;6.93;;
80199;SDS011;69520;44.900;-0.764;2023-07-02T14:33:34;12.90;;;6.95;;
80199;SDS011;69520;44.900;-0.764;2023-07-02T14:36:01;13.05;;;7.00;;
80199;SDS011;69520;44.900;-0.764;2023-07-02T14:38:28;14.70;;;7.07;;
80199;SDS011;69520;44.900;-0.764;2023-07-02T14:40:54;14.48;;;7.05;;
80199;SDS011;69520;44.900;-0.764;2023-07-02T14:43:21;13.45;;;6.65;;
80199;SDS011;69520;44.900;-0.764;2023-07-02T14:45:52;15.30;;;7.75;;
80199;SDS011;69520;44.900;-0.764;2023-07-02T14:48:18;15.25;;;8.00;;
80199;SDS011;69520;44.900;-0.764;2023-07-02T14:50:45;15.73;;;7.63;;
80199;SDS011;69520;44.900;-0.764;2023-07-02T14:53:11;15.85;;;7.82;;
80199;SDS011;69520;44.900;-0.764;2023-07-02T14:55:37;14.13;;;7.47;;
80199;SDS011;69520;44.900;-0.764;2023-07-02T14:58:04;16.42;;;7.90;;
80199;SDS011;69520;44.900;-0.764;2023-07-02T15:00:30;15.15;;;7.57;;
80199;SDS011;69520;44.900;-0.764;2023-07-02T15:02:57;13.80;;;7.63;;
80199;SDS011;69520;44.900;-0.764;2023-07-02T15:05:23;16.17;;;7.97;;
80199;SDS011;69520;44.900;-0.764;2023-07-02T15:07:49;14.48;;;7.28;;
80199;SDS011;69520;44.900;-0.764;2023-07-02T15:10:16;14.02;;;7.40;;
80199;SDS011;69520;44.900;-0.764;2023-07-02T15:12:42;14.98;;;7.13;;
80199;SDS011;69520;44.900;-0.764;2023-07-02T15:15:09;13.70;;;7.07;;
80199;SDS011;69520;44.900;-0.764;2023-07-02T15:17:35;14.75;;;7.00;;
80199;SDS011;69520;44.900;-0.764;2023-07-02T15:20:01;14.38;;;7.05;;
80199;SDS011;69520;44.900;-0.764;2023-07-02T15:22:29;13.95;;;6.63;;
80199;SDS011;69520;44.900;-0.764;2023-07-02T15:24:55;15.75;;;7.45;;
80199;SDS011;69520;44.900;-0.764;2023-07-02T15:27:24;14.40;;;7.47;;
80199;SDS011;69520;44.900;-0.764;2023-07-02T15:29:50;14.00;;;7.15;;
80199;SDS011;69520;44.900;-0.764;2023-07-02T15:32:16;13.85;;;7.07;;
80199;SDS011;69520;44.900;-0.764;2023-07-02T15:34:42;14.75;;;7.38;;
80199;SDS011;69520;44.900;-0.764;2023-07-02T15:37:08;14.13;;;7.32;;
80199;SDS011;69520;44.900;-0.764;2023-07-02T15:39:34;14.47;;;7.80;;
80199;SDS011;69520;44.900;-0.764;2023-07-02T15:42:00;14.10;;;7.20;;
80199;SDS011;69520;44.900;-0.764;2023-07-02T15:44:26;18.40;;;7.95;;
80199;SDS011;69520;44.900;-0.764;2023-07-02T15:46:52;13.93;;;6.90;;
80199;SDS011;69520;44.900;-0.764;2023-07-02T15:49:18;14.23;;;7.07;;
80199;SDS011;69520;44.900;-0.764;2023-07-02T15:51:44;16.27;;;7.73;;
80199;SDS011;69520;44.900;-0.764;2023-07-02T15:54:11;17.00;;;7.53;;
80199;SDS011;69520;44.900;-0.764;2023-07-02T15:56:37;15.35;;;8.13;;
80199;SDS011;69520;44.900;-0.764;2023-07-02T15:59:04;15.32;;;7.60;;
80199;SDS011;69520;44.900;-0.764;2023-07-02T16:01:33;14.55;;;6.68;;
80199;SDS011;69520;44.900;-0.764;2023-07-02T16:04:01;16.07;;;7.70;;
80199;SDS011;69520;44.900;-0.764;2023-07-02T16:06:29;17.13;;;7.68;;
80199;SDS011;69520;44.900;-0.764;2023-07-02T16:08:58;16.60;;;8.18;;
80199;SDS011;69520;44.900;-0.764;2023-07-02T16:11:24;14.23;;;7.75;;
80199;SDS011;69520;44.900;-0.764;2023-07-02T16:13:53;15.52;;;8.10;;
80199;SDS011;69520;44.900;-0.764;2023-07-02T16:16:19;13.03;;;6.83;;
80199;SDS011;69520;44.900;-0.764;2023-07-02T16:18:45;12.65;;;7.18;;
80199;SDS011;69520;44.900;-0.764;2023-07-02T16:21:11;11.93;;;6.25;;
80199;SDS011;69520;44.900;-0.764;2023-07-02T16:23:37;13.65;;;6.00;;
80199;SDS011;69520;44.900;-0.764;2023-07-02T16:26:05;13.43;;;7.15;;
80199;SDS011;69520;44.900;-0.764;2023-07-02T16:28:32;13.80;;;6.30;;
80199;SDS011;69520;44.900;-0.764;2023-07-02T16:30:58;12.90;;;6.13;;
80199;SDS011;69520;44.900;-0.764;2023-07-02T16:33:24;16.92;;;6.80;;
80199;SDS011;69520;44.900;-0.764;2023-07-02T16:35:50;14.55;;;6.95;;
80199;SDS011;69520;44.900;-0.764;2023-07-02T16:38:16;13.98;;;6.80;;
80199;SDS011;69520;44.900;-0.764;2023-07-02T16:40:45;15.70;;;6.87;;
80199;SDS011;69520;44.900;-0.764;2023-07-02T16:43:11;14.82;;;7.43;;
80199;SDS011;69520;44.900;-0.764;2023-07-02T16:45:37;16.13;;;8.00;;
80199;SDS011;69520;44.900;-0.764;2023-07-02T16:48:03;16.70;;;7.97;;
80199;SDS011;69520;44.900;-0.764;2023-07-02T16:50:30;16.38;;;7.55;;
80199;SDS011;69520;44.900;-0.764;2023-07-02T16:52:56;16.20;;;7.37;;
80199;SDS011;69520;44.900;-0.764;2023-07-02T16:55:22;15.60;;;7.10;;
80199;SDS011;69520;44.900;-0.764;2023-07-02T16:57:48;16.35;;;7.93;;
80199;SDS011;69520;44.900;-0.764;2023-07-02T17:00:14;17.63;;;8.05;;
80199;SDS011;69520;44.900;-0.764;2023-07-02T17:02:40;16.23;;;7.65;;
80199;SDS011;69520;44.900;-0.764;2023-07-02T17:05:06;17.20;;;8.00;;
80199;SDS011;69520;44.900;-0.764;2023-07-02T17:07:32;14.85;;;7.30;;
80199;SDS011;69520;44.900;-0.764;2023-07-02T17:09:58;17.75;;;7.57;;
80199;SDS011;69520;44.900;-0.764;2023-07-02T17:12:24;13.70;;;6.72;;
80199;SDS011;69520;44.900;-0.764;2023-07-02T17:14:50;16.63;;;6.68;;
80199;SDS011;69520;44.900;-0.764;2023-07-02T17:17:22;15.57;;;7.17;;
80199;SDS011;69520;44.900;-0.764;2023-07-02T17:19:54;14.77;;;7.03;;
80199;SDS011;69520;44.900;-0.764;2023-07-02T17:22:21;18.60;;;7.32;;
80199;SDS011;69520;44.900;-0.764;2023-07-02T17:24:48;14.70;;;7.07;;
80199;SDS011;69520;44.900;-0.764;2023-07-02T17:27:16;14.57;;;6.70;;
80199;SDS011;69520;44.900;-0.764;2023-07-02T17:29:48;12.23;;;5.67;;
80199;SDS011;69520;44.900;-0.764;2023-07-02T17:32:14;13.32;;;5.88;;
80199;SDS011;69520;44.900;-0.764;2023-07-02T17:34:40;12.60;;;6.50;;
80199;SDS011;69520;44.900;-0.764;2023-07-02T17:37:07;12.55;;;5.80;;
80199;SDS011;69520;44.900;-0.764;2023-07-02T17:39:33;10.55;;;4.90;;
80199;SDS011;69520;44.900;-0.764;2023-07-02T17:42:00;11.27;;;5.00;;
80199;SDS011;69520;44.900;-0.764;2023-07-02T17:44:28;12.57;;;5.35;;
80199;SDS011;69520;44.900;-0.764;2023-07-02T17:46:55;12.10;;;5.10;;
80199;SDS011;69520;44.900;-0.764;2023-07-02T17:49:22;12.73;;;5.63;;
80199;SDS011;69520;44.900;-0.764;2023-07-02T17:51:48;11.80;;;5.55;;
80199;SDS011;69520;44.900;-0.764;2023-07-02T17:54:15;12.20;;;5.57;;
80199;SDS011;69520;44.900;-0.764;2023-07-02T17:56:44;13.18;;;6.18;;
80199;SDS011;69520;44.900;-0.764;2023-07-02T17:59:10;14.48;;;6.03;;
80199;SDS011;69520;44.900;-0.764;2023-07-02T18:01:43;13.00;;;5.97;;
80199;SDS011;69520;44.900;-0.764;2023-07-02T18:04:09;12.88;;;6.10;;
80199;SDS011;69520;44.900;-0.764;2023-07-02T18:06:35;13.60;;;6.37;;
80199;SDS011;69520;44.900;-0.764;2023-07-02T18:09:02;14.63;;;6.30;;
80199;SDS011;69520;44.900;-0.764;2023-07-02T18:11:30;13.63;;;6.43;;
80199;SDS011;69520;44.900;-0.764;2023-07-02T18:13:56;13.68;;;6.30;;
80199;SDS011;69520;44.900;-0.764;2023-07-02T18:16:22;12.43;;;6.13;;
80199;SDS011;69520;44.900;-0.764;2023-07-02T18:18:48;15.50;;;6.53;;
80199;SDS011;69520;44.900;-0.764;2023-07-02T18:21:14;16.17;;;6.80;;
80199;SDS011;69520;44.900;-0.764;2023-07-02T18:23:41;16.75;;;7.22;;
80199;SDS011;69520;44.900;-0.764;2023-07-02T18:26:07;19.70;;;7.97;;
80199;SDS011;69520;44.900;-0.764;2023-07-02T18:28:33;15.85;;;7.25;;
80199;SDS011;69520;44.900;-0.764;2023-07-02T18:30:59;15.00;;;6.70;;
80199;SDS011;69520;44.900;-0.764;2023-07-02T18:33:25;16.25;;;7.72;;
80199;SDS011;69520;44.900;-0.764;2023-07-02T18:35:52;17.13;;;7.40;;
80199;SDS011;69520;44.900;-0.764;2023-07-02T18:38:18;17.23;;;7.47;;
80199;SDS011;69520;44.900;-0.764;2023-07-02T18:40:44;16.92;;;8.07;;
80199;SDS011;69520;44.900;-0.764;2023-07-02T18:43:10;17.37;;;7.67;;
80199;SDS011;69520;44.900;-0.764;2023-07-02T18:45:37;18.60;;;7.85;;
80199;SDS011;69520;44.900;-0.764;2023-07-02T18:48:03;22.27;;;8.75;;
80199;SDS011;69520;44.900;-0.764;2023-07-02T18:50:29;17.85;;;8.25;;
80199;SDS011;69520;44.900;-0.764;2023-07-02T18:52:55;18.38;;;9.07;;
80199;SDS011;69520;44.900;-0.764;2023-07-02T18:55:21;17.87;;;8.03;;
80199;SDS011;69520;44.900;-0.764;2023-07-02T18:57:47;18.38;;;8.63;;
80199;SDS011;69520;44.900;-0.764;2023-07-02T19:00:13;16.65;;;8.55;;
80199;SDS011;69520;44.900;-0.764;2023-07-02T19:02:41;18.25;;;8.00;;
80199;SDS011;69520;44.900;-0.764;2023-07-02T19:05:07;17.08;;;8.57;;
80199;SDS011;69520;44.900;-0.764;2023-07-02T19:07:33;18.53;;;8.53;;
80199;SDS011;69520;44.900;-0.764;2023-07-02T19:09:59;21.27;;;9.18;;
80199;SDS011;69520;44.900;-0.764;2023-07-02T19:12:26;19.10;;;9.20;;
80199;SDS011;69520;44.900;-0.764;2023-07-02T19:14:53;18.00;;;8.63;;
80199;SDS011;69520;44.900;-0.764;2023-07-02T19:17:19;19.30;;;8.55;;
80199;SDS011;69520;44.900;-0.764;2023-07-02T19:19:46;18.10;;;8.73;;
80199;SDS011;69520;44.900;-0.764;2023-07-02T19:22:14;17.20;;;8.63;;
80199;SDS011;69520;44.900;-0.764;2023-07-02T19:24:40;18.52;;;8.68;;
80199;SDS011;69520;44.900;-0.764;2023-07-02T19:27:07;20.60;;;8.40;;
80199;SDS011;69520;44.900;-0.764;2023-07-02T19:29:33;18.38;;;8.80;;
80199;SDS011;69520;44.900;-0.764;2023-07-02T19:32:01;18.77;;;8.37;;
80199;SDS011;69520;44.900;-0.764;2023-07-02T19:34:27;23.20;;;9.40;;
80199;SDS011;69520;44.900;-0.764;2023-07-02T19:36:53;18.77;;;9.95;;
80199;SDS011;69520;44.900;-0.764;2023-07-02T19:39:19;19.23;;;8.57;;
80199;SDS011;69520;44.900;-0.764;2023-07-02T19:41:46;18.88;;;9.40;;
80199;SDS011;69520;44.900;-0.764;2023-07-02T19:44:13;21.10;;;10.00;;
80199;SDS011;69520;44.900;-0.764;2023-07-02T19:46:39;18.90;;;9.32;;
80199;SDS011;69520;44.900;-0.764;2023-07-02T19:49:05;19.75;;;8.70;;
80199;SDS011;69520;44.900;-0.764;2023-07-02T19:51:31;19.48;;;9.10;;
80199;SDS011;69520;44.900;-0.764;2023-07-02T19:53:57;23.73;;;9.85;;
80199;SDS011;69520;44.900;-0.764;2023-07-02T19:56:25;19.93;;;9.20;;
80199;SDS011;69520;44.900;-0.764;2023-07-02T19:58:52;19.60;;;9.35;;
80199;SDS011;69520;44.900;-0.764;2023-07-02T20:01:18;19.73;;;8.50;;
80199;SDS011;69520;44.900;-0.764;2023-07-02T20:03:49;18.90;;;9.48;;
80199;SDS011;69520;44.900;-0.764;2023-07-02T20:06:16;24.35;;;9.50;;
80199;SDS011;69520;44.900;-0.764;2023-07-02T20:08:42;22.80;;;9.83;;
80199;SDS011;69520;44.900;-0.764;2023-07-02T20:11:09;22.00;;;10.07;;
80199;SDS011;69520;44.900;-0.764;2023-07-02T20:13:35;19.85;;;9.57;;
80199;SDS011;69520;44.900;-0.764;2023-07-02T20:16:01;19.67;;;9.63;;
80199;SDS011;69520;44.900;-0.764;2023-07-02T20:18:29;20.67;;;9.88;;
80199;SDS011;69520;44.900;-0.764;2023-07-02T20:21:06;19.60;;;9.47;;
80199;SDS011;69520;44.900;-0.764;2023-07-02T20:23:33;20.80;;;10.27;;
80199;SDS011;69520;44.900;-0.764;2023-07-02T20:25:59;24.83;;;9.77;;
80199;SDS011;69520;44.900;-0.764;2023-07-02T20:28:26;24.48;;;9.73;;
80199;SDS011;69520;44.900;-0.764;2023-07-02T20:30:52;23.20;;;9.60;;
80199;SDS011;69520;44.900;-0.764;2023-07-02T20:33:18;22.27;;;9.43;;
80199;SDS011;69520;44.900;-0.764;2023-07-02T20:35:44;25.13;;;10.70;;
80199;SDS011;69520;44.900;-0.764;2023-07-02T20:38:10;21.02;;;9.40;;
80199;SDS011;69520;44.900;-0.764;2023-07-02T20:40:38;21.30;;;10.15;;
80199;SDS011;69520;44.900;-0.764;2023-07-02T20:43:05;23.77;;;9.75;;
80199;SDS011;69520;44.900;-0.764;2023-07-02T20:45:38;23.43;;;9.87;;
80199;SDS011;69520;44.900;-0.764;2023-07-02T20:48:04;23.60;;;10.07;;
80199;SDS011;69520;44.900;-0.764;2023-07-02T20:50:31;21.75;;;10.55;;
80199;SDS011;69520;44.900;-0.764;2023-07-02T20:52:57;24.88;;;9.98;;
80199;SDS011;69520;44.900;-0.764;2023-07-02T20:55:23;21.98;;;9.95;;
80199;SDS011;69520;44.900;-0.764;2023-07-02T20:57:49;22.07;;;10.20;;
80199;SDS011;69520;44.900;-0.764;2023-07-02T21:00:15;21.95;;;10.07;;
80199;SDS011;69520;44.900;-0.764;2023-07-02T21:02:42;23.67;;;10.35;;
80199;SDS011;69520;44.900;-0.764;2023-07-02T21:05:08;23.90;;;10.65;;
80199;SDS011;69520;44.900;-0.764;2023-07-02T21:07:35;25.38;;;10.02;;
80199;SDS011;69520;44.900;-0.764;2023-07-02T21:10:02;21.90;;;10.10;;
80199;SDS011;69520;44.900;-0.764;2023-07-02T21:12:28;25.20;;;11.10;;
80199;SDS011;69520;44.900;-0.764;2023-07-02T21:14:54;19.90;;;9.75;;
80199;SDS011;69520;44.900;-0.764;2023-07-02T21:17:21;22.42;;;10.40;;
80199;SDS011;69520;44.900;-0.764;2023-07-02T21:19:47;22.88;;;10.27;;
80199;SDS011;69520;44.900;-0.764;2023-07-02T21:22:13;21.07;;;10.13;;
80199;SDS011;69520;44.900;-0.764;2023-07-02T21:24:39;27.27;;;12.60;;
80199;SDS011;69520;44.900;-0.764;2023-07-02T21:27:05;24.75;;;10.65;;
80199;SDS011;69520;44.900;-0.764;2023-07-02T21:29:32;22.58;;;11.15;;
80199;SDS011;69520;44.900;-0.764;2023-07-02T21:31:58;21.98;;;10.23;;
80199;SDS011;69520;44.900;-0.764;2023-07-02T21:34:25;22.97;;;10.40;;
80199;SDS011;69520;44.900;-0.764;2023-07-02T21:36:51;21.88;;;10.00;;
80199;SDS011;69520;44.900;-0.764;2023-07-02T21:39:17;22.77;;;9.23;;
80199;SDS011;69520;44.900;-0.764;2023-07-02T21:41:43;20.50;;;9.73;;
80199;SDS011;69520;44.900;-0.764;2023-07-02T21:44:09;23.77;;;10.60;;
80199;SDS011;69520;44.900;-0.764;2023-07-02T21:46:35;25.43;;;11.00;;
80199;SDS011;69520;44.900;-0.764;2023-07-02T21:49:01;20.33;;;10.18;;
80199;SDS011;69520;44.900;-0.764;2023-07-02T21:51:27;26.30;;;10.90;;
80199;SDS011;69520;44.900;-0.764;2023-07-02T21:53:54;21.60;;;9.98;;
80199;SDS011;69520;44.900;-0.764;2023-07-02T21:56:20;22.80;;;10.38;;
80199;SDS011;69520;44.900;-0.764;2023-07-02T21:58:46;22.60;;;10.10;;
80199;SDS011;69520;44.900;-0.764;2023-07-02T22:01:13;24.63;;;10.68;;
80199;SDS011;69520;44.900;-0.764;2023-07-02T22:03:40;28.05;;;11.25;;
80199;SDS011;69520;44.900;-0.764;2023-07-02T22:06:06;24.05;;;11.38;;
80199;SDS011;69520;44.900;-0.764;2023-07-02T22:08:32;24.55;;;11.13;;
80199;SDS011;69520;44.900;-0.764;2023-07-02T22:10:58;25.90;;;10.90;;
80199;SDS011;69520;44.900;-0.764;2023-07-02T22:13:24;24.60;;;11.20;;
80199;SDS011;69520;44.900;-0.764;2023-07-02T22:15:50;23.60;;;10.55;;
80199;SDS011;69520;44.900;-0.764;2023-07-02T22:18:16;24.30;;;11.05;;
80199;SDS011;69520;44.900;-0.764;2023-07-02T22:20:42;22.35;;;10.00;;
80199;SDS011;69520;44.900;-0.764;2023-07-02T22:23:10;21.40;;;10.10;;
80199;SDS011;69520;44.900;-0.764;2023-07-02T22:25:40;23.85;;;10.40;;
80199;SDS011;69520;44.900;-0.764;2023-07-02T22:28:07;23.05;;;10.60;;
80199;SDS011;69520;44.900;-0.764;2023-07-02T22:30:34;24.65;;;11.65;;
80199;SDS011;69520;44.900;-0.764;2023-07-02T22:33:00;24.05;;;10.48;;
80199;SDS011;69520;44.900;-0.764;2023-07-02T22:35:26;25.20;;;10.90;;
80199;SDS011;69520;44.900;-0.764;2023-07-02T22:37:52;25.92;;;11.02;;
80199;SDS011;69520;44.900;-0.764;2023-07-02T22:40:20;25.48;;;10.15;;
80199;SDS011;69520;44.900;-0.764;2023-07-02T22:42:46;23.70;;;9.88;;
80199;SDS011;69520;44.900;-0.764;2023-07-02T22:45:14;23.67;;;9.90;;
80199;SDS011;69520;44.900;-0.764;2023-07-02T22:47:41;22.10;;;9.70;;
80199;SDS011;69520;44.900;-0.764;2023-07-02T22:50:08;21.48;;;10.23;;
80199;SDS011;69520;44.900;-0.764;2023-07-02T22:52:34;22.08;;;9.80;;
80199;SDS011;69520;44.900;-0.764;2023-07-02T22:55:02;21.95;;;10.13;;
80199;SDS011;69520;44.900;-0.764;2023-07-02T22:57:32;24.20;;;10.15;;
80199;SDS011;69520;44.900;-0.764;2023-07-02T22:59:58;21.43;;;10.20;;
80199;SDS011;69520;44.900;-0.764;2023-07-02T23:02:25;21.67;;;9.30;;
80199;SDS011;69520;44.900;-0.764;2023-07-02T23:04:51;19.58;;;9.95;;
80199;SDS011;69520;44.900;-0.764;2023-07-02T23:07:17;24.33;;;10.45;;
80199;SDS011;69520;44.900;-0.764;2023-07-02T23:09:43;18.67;;;9.52;;
80199;SDS011;69520;44.900;-0.764;2023-07-02T23:12:09;24.10;;;10.87;;
